sensor_id;sensor_type;location;lat;lon;timestamp;pressure;altitude;pressure_sealevel;temperature;humidity
2184;BME280;1098;48.940;8.962;2022-12-11T00:01:45;97836.78;;;-2.19;100.00
2184;BME280;1098;48.940;8.962;2022-12-11T00:04:13;97831.66;;;-2.20;100.00
2184;BME280;1098;48.940;8.962;2022-12-11T00:06:41;97830.66;;;-2.19;100.00
2184;BME280;1098;48.940;8.962;2022-12-11T00:09:09;97842.28;;;-1.96;100.00
2184;BME280;1098;48.940;8.962;2022-12-11T00:11:38;97833.81;;;-2.32;100.00
2184;BME280;1098;48.940;8.962;2022-12-11T00:14:07;97839.31;;;-2.09;100.00
2184;BME280;1098;48.940;8.962;2022-12-11T00:16:35;97835.28;;;-2.21;100.00
2184;BME280;1098;48.940;8.962;2022-12-11T00:19:04;97831.59;;;-2.45;100.00
2184;BME280;1098;48.940;8.962;2022-12-11T00:21:32;97838.78;;;-2.29;100.00
2184;BME280;1098;48.940;8.962;2022-12-11T00:24:00;97828.22;;;-2.13;100.00
2184;BME280;1098;48.940;8.962;2022-12-11T00:26:28;97843.41;;;-2.07;100.00
2184;BME280;1098;48.940;8.962;2022-12-11T00:28:56;97835.31;;;-2.05;100.00
2184;BME280;1098;48.940;8.962;2022-12-11T00:31:24;97833.31;;;-2.19;100.00
2184;BME280;1098;48.940;8.962;2022-12-11T00:33:53;97826.22;;;-1.62;100.00
2184;BME280;1098;48.940;8.962;2022-12-11T00:36:23;97824.56;;;-2.12;100.00
2184;BME280;1098;48.940;8.962;2022-12-11T00:38:52;97829.34;;;-2.15;100.00
2184;BME280;1098;48.940;8.962;2022-12-11T00:41:23;97829.69;;;-2.02;100.00
2184;BME280;1098;48.940;8.962;2022-12-11T00:43:51;97832.31;;;-2.26;100.00
2184;BME280;1098;48.940;8.962;2022-12-11T00:46:19;97830.81;;;-2.37;100.00
2184;BME280;1098;48.940;8.962;2022-12-11T00:48:47;97834.78;;;-2.33;100.00
2184;BME280;1098;48.940;8.962;2022-12-11T00:51:16;97831.00;;;-2.06;100.00
2184;BME280;1098;48.940;8.962;2022-12-11T00:53:45;97835.66;;;-2.00;100.00
2184;BME280;1098;48.940;8.962;2022-12-11T00:56:14;97834.97;;;-2.18;100.00
2184;BME280;1098;48.940;8.962;2022-12-11T00:58:42;97838.78;;;-2.04;100.00
2184;BME280;1098;48.940;8.962;2022-12-11T01:01:15;97839.00;;;-1.90;100.00
2184;BME280;1098;48.940;8.962;2022-12-11T01:03:44;97834.84;;;-1.60;100.00
2184;BME280;1098;48.940;8.962;2022-12-11T01:06:13;97844.94;;;-1.63;100.00
2184;BME280;1098;48.940;8.962;2022-12-11T01:08:41;97858.84;;;-1.78;100.00
2184;BME280;1098;48.940;8.962;2022-12-11T01:11:11;97847.91;;;-1.91;100.00
2184;BME280;1098;48.940;8.962;2022-12-11T01:13:39;97853.88;;;-1.81;100.00
2184;BME280;1098;48.940;8.962;2022-12-11T01:16:07;97855.34;;;-1.86;100.00
2184;BME280;1098;48.940;8.962;2022-12-11T01:18:36;97857.50;;;-1.82;100.00
2184;BME280;1098;48.940;8.962;2022-12-11T01:21:05;97857.34;;;-1.88;100.00
2184;BME280;1098;48.940;8.962;2022-12-11T01:23:35;97865.44;;;-1.82;100.00
2184;BME280;1098;48.940;8.962;2022-12-11T01:26:04;97868.09;;;-1.82;100.00
2184;BME280;1098;48.940;8.962;2022-12-11T01:28:34;97870.44;;;-1.70;100.00
2184;BME280;1098;48.940;8.962;2022-12-11T01:31:06;97872.91;;;-1.36;100.00
2184;BME280;1098;48.940;8.962;2022-12-11T01:33:37;97881.53;;;-1.59;100.00
2184;BME280;1098;48.940;8.962;2022-12-11T01:36:06;97882.38;;;-1.66;100.00
2184;BME280;1098;48.940;8.962;2022-12-11T01:38:35;97873.06;;;-1.38;100.00
2184;BME280;1098;48.940;8.962;2022-12-11T01:41:05;97874.72;;;-1.29;100.00
2184;BME280;1098;48.940;8.962;2022-12-11T01:43:34;97872.72;;;-1.11;100.00
2184;BME280;1098;48.940;8.962;2022-12-11T01:46:02;97872.25;;;-1.30;100.00
2184;BME280;1098;48.940;8.962;2022-12-11T01:48:31;97875.03;;;-1.24;100.00
2184;BME280;1098;48.940;8.962;2022-12-11T01:51:06;97883.03;;;-1.48;100.00
2184;BME280;1098;48.940;8.962;2022-12-11T01:53:36;97879.69;;;-1.42;100.00
2184;BME280;1098;48.940;8.962;2022-12-11T01:56:05;97878.00;;;-1.11;100.00
2184;BME280;1098;48.940;8.962;2022-12-11T01:58:37;97888.44;;;-1.09;100.00
2184;BME280;1098;48.940;8.962;2022-12-11T02:01:06;97887.47;;;-1.24;100.00
2184;BME280;1098;48.940;8.962;2022-12-11T02:03:37;97882.44;;;-1.03;100.00
2184;BME280;1098;48.940;8.962;2022-12-11T02:06:05;97883.78;;;-0.99;100.00
2184;BME280;1098;48.940;8.962;2022-12-11T02:08:33;97887.66;;;-1.26;100.00
2184;BME280;1098;48.940;8.962;2022-12-11T02:11:04;97888.59;;;-1.02;100.00
2184;BME280;1098;48.940;8.962;2022-12-11T02:13:33;97888.59;;;-0.94;100.00
2184;BME280;1098;48.940;8.962;2022-12-11T02:16:08;97892.44;;;-1.05;100.00
2184;BME280;1098;48.940;8.962;2022-12-11T02:18:41;97886.88;;;-0.71;100.00
2184;BME280;1098;48.940;8.962;2022-12-11T02:21:12;97887.56;;;-0.85;100.00
2184;BME280;1098;48.940;8.962;2022-12-11T02:26:39;97877.63;;;-0.91;100.00
2184;BME280;1098;48.940;8.962;2022-12-11T02:29:15;97879.66;;;-0.46;100.00
2184;BME280;1098;48.940;8.962;2022-12-11T02:31:45;97880.97;;;-0.11;100.00
2184;BME280;1098;48.940;8.962;2022-12-11T02:34:17;97879.25;;;-0.35;100.00
2184;BME280;1098;48.940;8.962;2022-12-11T02:36:49;97880.31;;;-0.44;100.00
2184;BME280;1098;48.940;8.962;2022-12-11T02:39:18;97872.63;;;-0.39;100.00
2184;BME280;1098;48.940;8.962;2022-12-11T02:41:49;97869.06;;;-0.54;100.00
2184;BME280;1098;48.940;8.962;2022-12-11T02:44:20;97875.75;;;-0.66;100.00
2184;BME280;1098;48.940;8.962;2022-12-11T02:46:50;97875.31;;;-0.94;100.00
2184;BME280;1098;48.940;8.962;2022-12-11T02:49:19;97880.31;;;-0.99;100.00
2184;BME280;1098;48.940;8.962;2022-12-11T02:51:47;97873.13;;;-0.75;100.00
2184;BME280;1098;48.940;8.962;2022-12-11T02:54:17;97876.41;;;-0.73;100.00
2184;BME280;1098;48.940;8.962;2022-12-11T02:56:48;97873.09;;;-0.66;100.00
2184;BME280;1098;48.940;8.962;2022-12-11T02:59:19;97871.84;;;-0.48;100.00
2184;BME280;1098;48.940;8.962;2022-12-11T03:01:50;97873.31;;;-0.84;100.00
2184;BME280;1098;48.940;8.962;2022-12-11T03:04:18;97868.06;;;-1.17;100.00
2184;BME280;1098;48.940;8.962;2022-12-11T03:06:51;97872.84;;;-0.96;100.00
2184;BME280;1098;48.940;8.962;2022-12-11T03:09:20;97870.19;;;-0.88;100.00
2184;BME280;1098;48.940;8.962;2022-12-11T03:11:48;97874.91;;;-0.67;100.00
2184;BME280;1098;48.940;8.962;2022-12-11T03:14:16;97870.72;;;-0.61;100.00
2184;BME280;1098;48.940;8.962;2022-12-11T03:16:50;97873.22;;;-0.60;100.00
2184;BME280;1098;48.940;8.962;2022-12-11T03:19:23;97871.31;;;-0.82;100.00
2184;BME280;1098;48.940;8.962;2022-12-11T03:21:56;97878.00;;;-0.55;100.00
2184;BME280;1098;48.940;8.962;2022-12-11T03:24:27;97871.50;;;-0.92;100.00
2184;BME280;1098;48.940;8.962;2022-12-11T03:26:58;97873.50;;;-0.86;100.00
2184;BME280;1098;48.940;8.962;2022-12-11T03:29:34;97868.69;;;-0.98;100.00
2184;BME280;1098;48.940;8.962;2022-12-11T03:32:05;97865.63;;;-0.63;100.00
2184;BME280;1098;48.940;8.962;2022-12-11T03:34:36;97876.03;;;-1.17;100.00
2184;BME280;1098;48.940;8.962;2022-12-11T03:37:07;97870.03;;;-1.02;100.00
2184;BME280;1098;48.940;8.962;2022-12-11T03:39:38;97858.97;;;-1.22;100.00
2184;BME280;1098;48.940;8.962;2022-12-11T03:42:08;97862.31;;;-1.28;100.00
2184;BME280;1098;48.940;8.962;2022-12-11T03:44:37;97862.94;;;-1.18;100.00
2184;BME280;1098;48.940;8.962;2022-12-11T03:47:06;97862.38;;;-0.89;100.00
2184;BME280;1098;48.940;8.962;2022-12-11T03:49:38;97861.06;;;-0.93;100.00
2184;BME280;1098;48.940;8.962;2022-12-11T03:52:06;97865.09;;;-1.06;100.00
2184;BME280;1098;48.940;8.962;2022-12-11T03:54:37;97866.41;;;-1.18;100.00
2184;BME280;1098;48.940;8.962;2022-12-11T03:57:07;97829.31;;;-1.18;100.00
2184;BME280;1098;48.940;8.962;2022-12-11T03:59:37;97852.28;;;-0.47;100.00
2184;BME280;1098;48.940;8.962;2022-12-11T04:02:07;97864.47;;;-1.32;100.00
2184;BME280;1098;48.940;8.962;2022-12-11T04:04:38;97856.34;;;-1.39;100.00
2184;BME280;1098;48.940;8.962;2022-12-11T04:07:06;97861.66;;;-1.30;100.00
2184;BME280;1098;48.940;8.962;2022-12-11T04:09:36;97853.81;;;-1.16;100.00
2184;BME280;1098;48.940;8.962;2022-12-11T04:12:04;97856.81;;;-1.11;100.00
2184;BME280;1098;48.940;8.962;2022-12-11T04:14:32;97862.28;;;-1.04;100.00
2184;BME280;1098;48.940;8.962;2022-12-11T04:17:32;97847.88;;;-1.10;100.00
2184;BME280;1098;48.940;8.962;2022-12-11T04:20:20;97845.34;;;-0.56;100.00
2184;BME280;1098;48.940;8.962;2022-12-11T04:23:02;97841.84;;;-1.04;100.00
2184;BME280;1098;48.940;8.962;2022-12-11T04:25:48;97838.47;;;-0.73;100.00
2184;BME280;1098;48.940;8.962;2022-12-11T04:28:16;97832.44;;;-1.06;100.00
2184;BME280;1098;48.940;8.962;2022-12-11T04:30:46;97827.00;;;-0.65;100.00
2184;BME280;1098;48.940;8.962;2022-12-11T04:33:16;97847.06;;;-1.34;100.00
2184;BME280;1098;48.940;8.962;2022-12-11T04:35:44;97847.56;;;-1.31;100.00
2184;BME280;1098;48.940;8.962;2022-12-11T04:38:12;97833.41;;;-0.60;100.00
2184;BME280;1098;48.940;8.962;2022-12-11T04:40:40;97825.13;;;-0.57;100.00
2184;BME280;1098;48.940;8.962;2022-12-11T04:43:08;97832.56;;;-0.99;100.00
2184;BME280;1098;48.940;8.962;2022-12-11T04:45:36;97825.66;;;-1.17;100.00
2184;BME280;1098;48.940;8.962;2022-12-11T04:48:04;97828.53;;;-1.34;100.00
2184;BME280;1098;48.940;8.962;2022-12-11T04:50:34;97823.31;;;-1.04;100.00
2184;BME280;1098;48.940;8.962;2022-12-11T04:53:02;97833.28;;;-1.06;100.00
2184;BME280;1098;48.940;8.962;2022-12-11T04:55:30;97836.88;;;-0.90;100.00
2184;BME280;1098;48.940;8.962;2022-12-11T04:57:58;97850.59;;;-1.66;100.00
2184;BME280;1098;48.940;8.962;2022-12-11T05:00:26;97853.88;;;-1.81;100.00
2184;BME280;1098;48.940;8.962;2022-12-11T05:02:54;97848.44;;;-1.87;100.00
2184;BME280;1098;48.940;8.962;2022-12-11T05:05:22;97836.66;;;-1.93;100.00
2184;BME280;1098;48.940;8.962;2022-12-11T05:07:52;97849.22;;;-1.87;100.00
2184;BME280;1098;48.940;8.962;2022-12-11T05:10:20;97827.72;;;-2.00;100.00
2184;BME280;1098;48.940;8.962;2022-12-11T05:12:49;97847.41;;;-1.78;100.00
2184;BME280;1098;48.940;8.962;2022-12-11T05:15:19;97848.06;;;-1.84;100.00
2184;BME280;1098;48.940;8.962;2022-12-11T05:17:48;97853.22;;;-1.91;100.00
2184;BME280;1098;48.940;8.962;2022-12-11T05:20:16;97850.22;;;-1.31;100.00
2184;BME280;1098;48.940;8.962;2022-12-11T05:22:44;97854.88;;;-1.74;100.00
2184;BME280;1098;48.940;8.962;2022-12-11T05:25:14;97858.47;;;-1.18;100.00
2184;BME280;1098;48.940;8.962;2022-12-11T05:27:42;97852.88;;;-1.63;100.00
2184;BME280;1098;48.940;8.962;2022-12-11T05:30:10;97851.22;;;-1.73;100.00
2184;BME280;1098;48.940;8.962;2022-12-11T05:32:39;97852.41;;;-1.67;100.00
2184;BME280;1098;48.940;8.962;2022-12-11T05:35:07;97843.97;;;-1.70;100.00
2184;BME280;1098;48.940;8.962;2022-12-11T05:37:36;97840.31;;;-1.78;100.00
2184;BME280;1098;48.940;8.962;2022-12-11T05:40:04;97832.38;;;-1.69;100.00
2184;BME280;1098;48.940;8.962;2022-12-11T05:42:34;97834.34;;;-1.55;100.00
2184;BME280;1098;48.940;8.962;2022-12-11T05:45:02;97829.19;;;-1.65;100.00
2184;BME280;1098;48.940;8.962;2022-12-11T05:47:30;97822.94;;;-1.72;100.00
2184;BME280;1098;48.940;8.962;2022-12-11T05:49:58;97829.06;;;-1.88;100.00
2184;BME280;1098;48.940;8.962;2022-12-11T05:52:27;97823.56;;;-2.02;100.00
2184;BME280;1098;48.940;8.962;2022-12-11T05:54:55;97823.75;;;-1.80;100.00
2184;BME280;1098;48.940;8.962;2022-12-11T05:57:23;97811.84;;;-1.76;100.00
2184;BME280;1098;48.940;8.962;2022-12-11T05:59:52;97810.16;;;-2.17;100.00
2184;BME280;1098;48.940;8.962;2022-12-11T06:02:20;97819.97;;;-1.69;100.00
2184;BME280;1098;48.940;8.962;2022-12-11T06:04:48;97806.16;;;-1.40;100.00
2184;BME280;1098;48.940;8.962;2022-12-11T06:07:16;97820.88;;;-1.21;100.00
2184;BME280;1098;48.940;8.962;2022-12-11T06:09:44;97824.06;;;-1.83;100.00
2184;BME280;1098;48.940;8.962;2022-12-11T06:12:12;97827.84;;;-1.45;100.00
2184;BME280;1098;48.940;8.962;2022-12-11T06:14:40;97824.44;;;-1.69;100.00
2184;BME280;1098;48.940;8.962;2022-12-11T06:17:10;97824.91;;;-1.98;100.00
2184;BME280;1098;48.940;8.962;2022-12-11T06:19:38;97819.78;;;-2.00;100.00
2184;BME280;1098;48.940;8.962;2022-12-11T06:22:06;97824.88;;;-1.25;100.00
2184;BME280;1098;48.940;8.962;2022-12-11T06:24:34;97822.75;;;-1.87;100.00
2184;BME280;1098;48.940;8.962;2022-12-11T06:27:02;97825.09;;;-1.76;100.00
2184;BME280;1098;48.940;8.962;2022-12-11T06:29:31;97815.81;;;-1.55;100.00
2184;BME280;1098;48.940;8.962;2022-12-11T06:31:59;97805.91;;;-0.98;100.00
2184;BME280;1098;48.940;8.962;2022-12-11T06:34:28;97813.44;;;-1.26;100.00
2184;BME280;1098;48.940;8.962;2022-12-11T06:36:56;97801.72;;;-1.48;100.00
2184;BME280;1098;48.940;8.962;2022-12-11T06:39:24;97814.66;;;-1.77;100.00
2184;BME280;1098;48.940;8.962;2022-12-11T06:41:52;97813.16;;;-1.71;100.00
2184;BME280;1098;48.940;8.962;2022-12-11T06:44:20;97815.44;;;-1.36;100.00
2184;BME280;1098;48.940;8.962;2022-12-11T06:46:48;97808.03;;;-0.85;100.00
2184;BME280;1098;48.940;8.962;2022-12-11T06:49:19;97809.50;;;-0.52;100.00
2184;BME280;1098;48.940;8.962;2022-12-11T06:51:48;97803.84;;;-0.80;100.00
2184;BME280;1098;48.940;8.962;2022-12-11T06:54:16;97819.28;;;-1.47;100.00
2184;BME280;1098;48.940;8.962;2022-12-11T06:56:44;97815.22;;;-1.10;100.00
2184;BME280;1098;48.940;8.962;2022-12-11T06:59:13;97810.84;;;-0.87;100.00
2184;BME280;1098;48.940;8.962;2022-12-11T07:01:41;97815.72;;;-1.07;100.00
2184;BME280;1098;48.940;8.962;2022-12-11T07:04:09;97810.63;;;-0.77;100.00
2184;BME280;1098;48.940;8.962;2022-12-11T07:06:37;97823.63;;;-0.90;100.00
2184;BME280;1098;48.940;8.962;2022-12-11T07:09:06;97806.00;;;-1.30;100.00
2184;BME280;1098;48.940;8.962;2022-12-11T07:11:35;97830.84;;;-1.40;100.00
2184;BME280;1098;48.940;8.962;2022-12-11T07:14:04;97829.22;;;-1.57;100.00
2184;BME280;1098;48.940;8.962;2022-12-11T07:16:32;97838.28;;;-1.35;100.00
2184;BME280;1098;48.940;8.962;2022-12-11T07:19:00;97834.94;;;-1.13;100.00
2184;BME280;1098;48.940;8.962;2022-12-11T07:21:28;97838.53;;;-0.89;100.00
2184;BME280;1098;48.940;8.962;2022-12-11T07:23:56;97837.44;;;-0.64;100.00
2184;BME280;1098;48.940;8.962;2022-12-11T07:26:26;97830.09;;;-1.01;100.00
2184;BME280;1098;48.940;8.962;2022-12-11T07:28:55;97835.44;;;-1.09;100.00
2184;BME280;1098;48.940;8.962;2022-12-11T07:31:25;97831.31;;;-1.20;100.00
2184;BME280;1098;48.940;8.962;2022-12-11T07:33:53;97835.97;;;-1.30;100.00
2184;BME280;1098;48.940;8.962;2022-12-11T07:36:22;97830.31;;;-1.19;100.00
2184;BME280;1098;48.940;8.962;2022-12-11T07:38:50;97840.34;;;-0.90;100.00
2184;BME280;1098;48.940;8.962;2022-12-11T07:41:21;97843.09;;;-0.67;100.00
2184;BME280;1098;48.940;8.962;2022-12-11T07:43:54;97835.03;;;-0.43;100.00
2184;BME280;1098;48.940;8.962;2022-12-11T07:46:23;97841.25;;;-1.14;100.00
2184;BME280;1098;48.940;8.962;2022-12-11T07:48:52;97846.56;;;-1.30;100.00
2184;BME280;1098;48.940;8.962;2022-12-11T07:51:21;97841.06;;;-1.12;100.00
2184;BME280;1098;48.940;8.962;2022-12-11T07:53:53;97846.38;;;-1.20;100.00
2184;BME280;1098;48.940;8.962;2022-12-11T07:56:24;97839.25;;;-1.12;100.00
2184;BME280;1098;48.940;8.962;2022-12-11T07:58:54;97843.34;;;-0.93;100.00
2184;BME280;1098;48.940;8.962;2022-12-11T08:01:23;97847.75;;;-0.07;100.00
2184;BME280;1098;48.940;8.962;2022-12-11T08:03:52;97847.22;;;-0.64;100.00
2184;BME280;1098;48.940;8.962;2022-12-11T08:06:24;97833.59;;;-0.61;100.00
2184;BME280;1098;48.940;8.962;2022-12-11T08:08:52;97842.66;;;-0.87;100.00
2184;BME280;1098;48.940;8.962;2022-12-11T08:11:20;97838.38;;;-0.96;100.00
2184;BME280;1098;48.940;8.962;2022-12-11T08:13:48;97829.78;;;-0.59;100.00
2184;BME280;1098;48.940;8.962;2022-12-11T08:16:18;97823.19;;;-0.63;100.00
2184;BME280;1098;48.940;8.962;2022-12-11T08:18:50;97827.47;;;-0.31;100.00
2184;BME280;1098;48.940;8.962;2022-12-11T08:21:19;97835.41;;;-0.62;100.00
2184;BME280;1098;48.940;8.962;2022-12-11T08:23:47;97834.72;;;-0.48;100.00
2184;BME280;1098;48.940;8.962;2022-12-11T08:26:16;97841.69;;;-0.94;100.00
2184;BME280;1098;48.940;8.962;2022-12-11T08:28:44;97839.03;;;-0.55;100.00
2184;BME280;1098;48.940;8.962;2022-12-11T08:31:13;97844.31;;;-0.86;100.00
2184;BME280;1098;48.940;8.962;2022-12-11T08:33:43;97837.47;;;-0.72;100.00
2184;BME280;1098;48.940;8.962;2022-12-11T08:36:12;97834.69;;;-0.17;100.00
2184;BME280;1098;48.940;8.962;2022-12-11T08:38:40;97841.13;;;-0.81;100.00
2184;BME280;1098;48.940;8.962;2022-12-11T08:41:09;97836.97;;;-0.37;100.00
2184;BME280;1098;48.940;8.962;2022-12-11T08:43:38;97837.16;;;-0.15;100.00
2184;BME280;1098;48.940;8.962;2022-12-11T08:46:06;97837.91;;;-0.21;100.00
2184;BME280;1098;48.940;8.962;2022-12-11T08:48:35;97835.53;;;-0.47;100.00
2184;BME280;1098;48.940;8.962;2022-12-11T08:51:07;97840.03;;;-0.56;100.00
2184;BME280;1098;48.940;8.962;2022-12-11T08:53:35;97847.25;;;-0.81;100.00
2184;BME280;1098;48.940;8.962;2022-12-11T08:56:05;97831.91;;;-0.54;100.00
2184;BME280;1098;48.940;8.962;2022-12-11T08:58:33;97839.50;;;-0.43;100.00
2184;BME280;1098;48.940;8.962;2022-12-11T09:01:04;97822.41;;;-0.18;100.00
2184;BME280;1098;48.940;8.962;2022-12-11T09:03:33;97831.50;;;-0.12;100.00
2184;BME280;1098;48.940;8.962;2022-12-11T09:06:02;97829.25;;;-0.54;100.00
2184;BME280;1098;48.940;8.962;2022-12-11T09:08:32;97823.78;;;-0.53;100.00
2184;BME280;1098;48.940;8.962;2022-12-11T09:11:02;97815.84;;;-0.61;100.00
2184;BME280;1098;48.940;8.962;2022-12-11T09:13:33;97817.88;;;-0.63;100.00
2184;BME280;1098;48.940;8.962;2022-12-11T09:16:03;97827.75;;;-0.88;100.00
2184;BME280;1098;48.940;8.962;2022-12-11T09:18:31;97824.13;;;-0.56;100.00
2184;BME280;1098;48.940;8.962;2022-12-11T09:21:01;97822.53;;;-0.73;100.00
2184;BME280;1098;48.940;8.962;2022-12-11T09:23:29;97816.41;;;-0.12;100.00
2184;BME280;1098;48.940;8.962;2022-12-11T09:26:03;97822.44;;;0.05;100.00
2184;BME280;1098;48.940;8.962;2022-12-11T09:28:32;97803.41;;;-0.29;100.00
2184;BME280;1098;48.940;8.962;2022-12-11T09:31:01;97808.72;;;-0.29;100.00
2184;BME280;1098;48.940;8.962;2022-12-11T09:33:29;97812.81;;;-0.50;100.00
2184;BME280;1098;48.940;8.962;2022-12-11T09:35:57;97813.13;;;0.09;100.00
2184;BME280;1098;48.940;8.962;2022-12-11T09:38:26;97821.25;;;0.08;100.00
2184;BME280;1098;48.940;8.962;2022-12-11T09:40:55;97813.09;;;0.32;100.00
2184;BME280;1098;48.940;8.962;2022-12-11T09:43:29;97809.75;;;0.15;100.00
2184;BME280;1098;48.940;8.962;2022-12-11T09:45:59;97811.94;;;0.12;100.00
2184;BME280;1098;48.940;8.962;2022-12-11T09:48:29;97817.75;;;-0.16;100.00
2184;BME280;1098;48.940;8.962;2022-12-11T09:51:00;97810.59;;;0.16;100.00
2184;BME280;1098;48.940;8.962;2022-12-11T09:53:33;97809.22;;;0.20;100.00
2184;BME280;1098;48.940;8.962;2022-12-11T09:56:06;97805.75;;;0.19;100.00
2184;BME280;1098;48.940;8.962;2022-12-11T09:58:46;97809.09;;;0.13;100.00
2184;BME280;1098;48.940;8.962;2022-12-11T10:01:18;97809.69;;;-0.22;100.00
2184;BME280;1098;48.940;8.962;2022-12-11T10:04:00;97800.59;;;0.55;100.00
2184;BME280;1098;48.940;8.962;2022-12-11T10:06:34;97801.03;;;0.44;100.00
2184;BME280;1098;48.940;8.962;2022-12-11T10:09:09;97799.19;;;0.07;100.00
2184;BME280;1098;48.940;8.962;2022-12-11T10:11:47;97770.41;;;-0.27;100.00
2184;BME280;1098;48.940;8.962;2022-12-11T10:14:27;97800.06;;;0.60;100.00
2184;BME280;1098;48.940;8.962;2022-12-11T10:17:01;97796.00;;;0.12;100.00
2184;BME280;1098;48.940;8.962;2022-12-11T10:19:31;97789.50;;;-0.31;100.00
2184;BME280;1098;48.940;8.962;2022-12-11T10:21:59;97783.72;;;0.63;100.00
2184;BME280;1098;48.940;8.962;2022-12-11T10:24:32;97778.75;;;0.83;100.00
2184;BME280;1098;48.940;8.962;2022-12-11T10:27:22;97776.88;;;-0.07;100.00
2184;BME280;1098;48.940;8.962;2022-12-11T10:29:55;97783.28;;;-0.47;100.00
2184;BME280;1098;48.940;8.962;2022-12-11T10:32:28;97777.59;;;0.10;100.00
2184;BME280;1098;48.940;8.962;2022-12-11T10:35:03;97770.38;;;0.86;100.00
2184;BME280;1098;48.940;8.962;2022-12-11T10:37:32;97761.34;;;0.43;100.00
2184;BME280;1098;48.940;8.962;2022-12-11T10:40:00;97762.09;;;0.51;100.00
2184;BME280;1098;48.940;8.962;2022-12-11T10:42:28;97762.22;;;0.58;100.00
2184;BME280;1098;48.940;8.962;2022-12-11T10:44:59;97748.88;;;1.31;100.00
2184;BME280;1098;48.940;8.962;2022-12-11T10:47:27;97756.88;;;0.87;100.00
2184;BME280;1098;48.940;8.962;2022-12-11T10:49:57;97755.78;;;0.67;100.00
2184;BME280;1098;48.940;8.962;2022-12-11T10:52:26;97751.47;;;0.37;100.00
2184;BME280;1098;48.940;8.962;2022-12-11T10:54:58;97747.81;;;0.67;100.00
2184;BME280;1098;48.940;8.962;2022-12-11T10:57:27;97742.50;;;0.52;100.00
2184;BME280;1098;48.940;8.962;2022-12-11T10:59:57;97747.09;;;0.58;100.00
2184;BME280;1098;48.940;8.962;2022-12-11T11:02:27;97743.31;;;0.53;100.00
2184;BME280;1098;48.940;8.962;2022-12-11T11:04:56;97730.16;;;1.25;100.00
2184;BME280;1098;48.940;8.962;2022-12-11T11:07:28;97742.97;;;0.56;100.00
2184;BME280;1098;48.940;8.962;2022-12-11T11:10:04;97733.22;;;0.33;100.00
2184;BME280;1098;48.940;8.962;2022-12-11T11:12:35;97732.78;;;0.74;100.00
2184;BME280;1098;48.940;8.962;2022-12-11T11:15:06;97740.00;;;0.65;100.00
2184;BME280;1098;48.940;8.962;2022-12-11T11:17:40;97729.19;;;1.11;100.00
2184;BME280;1098;48.940;8.962;2022-12-11T11:20:21;97730.19;;;0.37;100.00
2184;BME280;1098;48.940;8.962;2022-12-11T11:22:51;97730.38;;;0.20;100.00
2184;BME280;1098;48.940;8.962;2022-12-11T11:25:20;97731.53;;;0.18;100.00
2184;BME280;1098;48.940;8.962;2022-12-11T11:27:50;97725.72;;;0.66;100.00
2184;BME280;1098;48.940;8.962;2022-12-11T11:30:21;97715.69;;;1.13;100.00
2184;BME280;1098;48.940;8.962;2022-12-11T11:32:50;97717.06;;;1.09;100.00
2184;BME280;1098;48.940;8.962;2022-12-11T11:35:21;97714.09;;;0.67;100.00
2184;BME280;1098;48.940;8.962;2022-12-11T11:37:57;97711.97;;;0.63;100.00
2184;BME280;1098;48.940;8.962;2022-12-11T11:40:28;97711.69;;;0.87;100.00
2184;BME280;1098;48.940;8.962;2022-12-11T11:43:00;97719.69;;;0.58;100.00
2184;BME280;1098;48.940;8.962;2022-12-11T11:45:32;97714.25;;;0.51;100.00
2184;BME280;1098;48.940;8.962;2022-12-11T11:48:09;97711.78;;;0.50;100.00
2184;BME280;1098;48.940;8.962;2022-12-11T11:50:38;97707.81;;;1.04;100.00
2184;BME280;1098;48.940;8.962;2022-12-11T11:53:11;97710.25;;;0.41;100.00
2184;BME280;1098;48.940;8.962;2022-12-11T11:55:41;97707.19;;;0.44;100.00
2184;BME280;1098;48.940;8.962;2022-12-11T11:58:14;97703.00;;;0.79;100.00
2184;BME280;1098;48.940;8.962;2022-12-11T12:00:46;97706.19;;;0.45;100.00
2184;BME280;1098;48.940;8.962;2022-12-11T12:03:15;97707.75;;;0.54;100.00
2184;BME280;1098;48.940;8.962;2022-12-11T12:05:48;97706.53;;;0.27;100.00
2184;BME280;1098;48.940;8.962;2022-12-11T12:08:19;97716.38;;;0.56;100.00
2184;BME280;1098;48.940;8.962;2022-12-11T12:10:51;97706.28;;;0.95;100.00
2184;BME280;1098;48.940;8.962;2022-12-11T12:13:21;97707.84;;;0.75;100.00
2184;BME280;1098;48.940;8.962;2022-12-11T12:16:15;97705.34;;;0.88;100.00
2184;BME280;1098;48.940;8.962;2022-12-11T12:19:06;97704.19;;;0.76;100.00
2184;BME280;1098;48.940;8.962;2022-12-11T12:21:39;97704.88;;;1.14;100.00
2184;BME280;1098;48.940;8.962;2022-12-11T12:24:14;97707.69;;;1.63;100.00
2184;BME280;1098;48.940;8.962;2022-12-11T12:26:45;97702.81;;;1.31;100.00
2184;BME280;1098;48.940;8.962;2022-12-11T12:29:21;97708.66;;;0.46;100.00
2184;BME280;1098;48.940;8.962;2022-12-11T12:31:57;97705.00;;;0.32;100.00
2184;BME280;1098;48.940;8.962;2022-12-11T12:34:42;97709.03;;;-0.09;100.00
2184;BME280;1098;48.940;8.962;2022-12-11T12:37:14;97713.41;;;-0.16;100.00
2184;BME280;1098;48.940;8.962;2022-12-11T12:39:46;97713.00;;;-0.05;100.00
2184;BME280;1098;48.940;8.962;2022-12-11T12:42:21;97696.94;;;0.41;100.00
2184;BME280;1098;48.940;8.962;2022-12-11T12:44:56;97701.47;;;1.20;100.00
2184;BME280;1098;48.940;8.962;2022-12-11T12:47:27;97698.56;;;1.00;100.00
2184;BME280;1098;48.940;8.962;2022-12-11T12:49:57;97693.50;;;1.20;100.00
2184;BME280;1098;48.940;8.962;2022-12-11T12:52:28;97689.66;;;1.65;100.00
2184;BME280;1098;48.940;8.962;2022-12-11T12:54:59;97681.00;;;1.21;100.00
2184;BME280;1098;48.940;8.962;2022-12-11T12:57:45;97669.41;;;1.92;100.00
2184;BME280;1098;48.940;8.962;2022-12-11T13:00:24;97669.88;;;1.53;100.00
2184;BME280;1098;48.940;8.962;2022-12-11T13:02:55;97674.56;;;1.51;100.00
2184;BME280;1098;48.940;8.962;2022-12-11T13:05:26;97673.81;;;1.36;100.00
2184;BME280;1098;48.940;8.962;2022-12-11T13:07:58;97677.38;;;1.64;100.00
2184;BME280;1098;48.940;8.962;2022-12-11T13:10:28;97677.50;;;0.69;100.00
2184;BME280;1098;48.940;8.962;2022-12-11T13:13:00;97674.03;;;0.54;100.00
2184;BME280;1098;48.940;8.962;2022-12-11T13:15:30;97672.72;;;0.94;100.00
2184;BME280;1098;48.940;8.962;2022-12-11T13:18:01;97676.41;;;0.64;100.00
2184;BME280;1098;48.940;8.962;2022-12-11T13:20:30;97670.84;;;0.59;100.00
2184;BME280;1098;48.940;8.962;2022-12-11T13:23:13;97676.59;;;0.18;100.00
2184;BME280;1098;48.940;8.962;2022-12-11T13:25:47;97674.66;;;0.42;100.00
2184;BME280;1098;48.940;8.962;2022-12-11T13:28:20;97672.63;;;0.14;100.00
2184;BME280;1098;48.940;8.962;2022-12-11T13:30:55;97680.50;;;0.08;100.00
2184;BME280;1098;48.940;8.962;2022-12-11T13:33:25;97670.47;;;0.32;100.00
2184;BME280;1098;48.940;8.962;2022-12-11T13:36:11;97677.50;;;0.69;100.00